Terminal Aerodrome Forecast
Issued by NWS

Home | Current Version | Previous Version | Text Only | Print | Product List | Glossary On
Versions: 1 2 3 4 5 6 7 8
229
FTUS42 KTBW 232341
TAFLAL
TAF
KLAL 232341Z 2400/2424 VRB06KT P6SM VCSH SCT060 BKN150
     FM240200 VRB05KT P6SM SCT050 SCT150
     FM240900 28004KT 5SM BR BKN020
     FM241400 27011KT P6SM SCT025 BKN050
     FM241700 27013G20KT P6SM BKN040=

USA.gov is the U.S. government's official web portal to all federal, state and local government web resources and services.